sensor_id;sensor_type;location;lat;lon;timestamp;P1;durP1;ratioP1;P2;durP2;ratioP2
18100;SDS011;9177;49.156;8.142;2022-10-16T00:01:45;0.50;;;0.50;;
18100;SDS011;9177;49.156;8.142;2022-10-16T00:04:12;1.17;;;0.50;;
18100;SDS011;9177;49.156;8.142;2022-10-16T00:06:40;0.57;;;0.57;;
18100;SDS011;9177;49.156;8.142;2022-10-16T00:09:10;0.60;;;0.60;;
18100;SDS011;9177;49.156;8.142;2022-10-16T00:11:38;0.77;;;0.40;;
18100;SDS011;9177;49.156;8.142;2022-10-16T00:14:07;0.50;;;0.50;;
18100;SDS011;9177;49.156;8.142;2022-10-16T00:16:36;0.50;;;0.50;;
18100;SDS011;9177;49.156;8.142;2022-10-16T00:19:04;1.30;;;0.60;;
18100;SDS011;9177;49.156;8.142;2022-10-16T00:21:31;0.83;;;0.60;;
18100;SDS011;9177;49.156;8.142;2022-10-16T00:23:59;0.50;;;0.40;;
18100;SDS011;9177;49.156;8.142;2022-10-16T00:26:29;0.83;;;0.50;;
18100;SDS011;9177;49.156;8.142;2022-10-16T00:28:57;1.23;;;0.60;;
18100;SDS011;9177;49.156;8.142;2022-10-16T00:31:24;0.53;;;0.53;;
18100;SDS011;9177;49.156;8.142;2022-10-16T00:33:51;0.40;;;0.40;;
18100;SDS011;9177;49.156;8.142;2022-10-16T00:36:19;0.77;;;0.60;;
18100;SDS011;9177;49.156;8.142;2022-10-16T00:38:49;1.20;;;0.60;;
18100;SDS011;9177;49.156;8.142;2022-10-16T00:41:18;1.07;;;0.60;;
18100;SDS011;9177;49.156;8.142;2022-10-16T00:43:47;0.40;;;0.40;;
18100;SDS011;9177;49.156;8.142;2022-10-16T00:46:16;0.40;;;0.40;;
18100;SDS011;9177;49.156;8.142;2022-10-16T00:48:49;0.73;;;0.57;;
18100;SDS011;9177;49.156;8.142;2022-10-16T00:51:20;0.50;;;0.50;;
18100;SDS011;9177;49.156;8.142;2022-10-16T00:53:50;0.83;;;0.60;;
18100;SDS011;9177;49.156;8.142;2022-10-16T00:56:17;1.70;;;0.50;;
18100;SDS011;9177;49.156;8.142;2022-10-16T00:58:50;1.20;;;0.47;;
18100;SDS011;9177;49.156;8.142;2022-10-16T01:01:18;0.60;;;0.60;;
18100;SDS011;9177;49.156;8.142;2022-10-16T01:03:45;0.50;;;0.50;;
18100;SDS011;9177;49.156;8.142;2022-10-16T01:06:16;0.50;;;0.47;;
18100;SDS011;9177;49.156;8.142;2022-10-16T01:08:51;0.53;;;0.53;;
18100;SDS011;9177;49.156;8.142;2022-10-16T01:11:26;0.60;;;0.60;;
18100;SDS011;9177;49.156;8.142;2022-10-16T01:13:58;1.27;;;0.40;;
18100;SDS011;9177;49.156;8.142;2022-10-16T01:16:32;0.50;;;0.50;;
18100;SDS011;9177;49.156;8.142;2022-10-16T01:19:07;0.90;;;0.60;;
18100;SDS011;9177;49.156;8.142;2022-10-16T01:21:39;0.40;;;0.40;;
18100;SDS011;9177;49.156;8.142;2022-10-16T01:24:11;0.50;;;0.50;;
18100;SDS011;9177;49.156;8.142;2022-10-16T01:26:50;0.50;;;0.50;;
18100;SDS011;9177;49.156;8.142;2022-10-16T01:29:33;0.60;;;0.60;;
18100;SDS011;9177;49.156;8.142;2022-10-16T01:32:05;0.40;;;0.40;;
18100;SDS011;9177;49.156;8.142;2022-10-16T01:34:38;0.43;;;0.43;;
18100;SDS011;9177;49.156;8.142;2022-10-16T01:37:11;0.67;;;0.60;;
18100;SDS011;9177;49.156;8.142;2022-10-16T01:39:40;0.57;;;0.50;;
18100;SDS011;9177;49.156;8.142;2022-10-16T01:42:13;0.70;;;0.60;;
18100;SDS011;9177;49.156;8.142;2022-10-16T01:44:43;0.30;;;0.30;;
18100;SDS011;9177;49.156;8.142;2022-10-16T01:47:11;0.70;;;0.60;;
18100;SDS011;9177;49.156;8.142;2022-10-16T01:49:41;2.57;;;0.50;;
18100;SDS011;9177;49.156;8.142;2022-10-16T01:52:10;0.63;;;0.50;;
18100;SDS011;9177;49.156;8.142;2022-10-16T01:54:41;1.03;;;0.60;;
18100;SDS011;9177;49.156;8.142;2022-10-16T01:57:13;1.43;;;0.50;;
18100;SDS011;9177;49.156;8.142;2022-10-16T01:59:42;0.77;;;0.40;;
18100;SDS011;9177;49.156;8.142;2022-10-16T02:02:12;1.70;;;0.60;;
18100;SDS011;9177;49.156;8.142;2022-10-16T02:04:44;0.70;;;0.60;;
18100;SDS011;9177;49.156;8.142;2022-10-16T02:07:13;0.57;;;0.57;;
18100;SDS011;9177;49.156;8.142;2022-10-16T02:09:40;1.03;;;0.70;;
18100;SDS011;9177;49.156;8.142;2022-10-16T02:12:08;0.47;;;0.40;;
18100;SDS011;9177;49.156;8.142;2022-10-16T02:14:42;1.13;;;0.50;;
18100;SDS011;9177;49.156;8.142;2022-10-16T02:17:10;0.77;;;0.50;;
18100;SDS011;9177;49.156;8.142;2022-10-16T02:19:38;1.50;;;0.60;;
18100;SDS011;9177;49.156;8.142;2022-10-16T02:22:06;0.53;;;0.53;;
18100;SDS011;9177;49.156;8.142;2022-10-16T02:24:39;0.50;;;0.50;;
18100;SDS011;9177;49.156;8.142;2022-10-16T02:27:13;0.40;;;0.40;;
18100;SDS011;9177;49.156;8.142;2022-10-16T02:29:47;0.50;;;0.50;;
18100;SDS011;9177;49.156;8.142;2022-10-16T02:32:19;0.93;;;0.40;;
18100;SDS011;9177;49.156;8.142;2022-10-16T02:34:48;0.40;;;0.40;;
18100;SDS011;9177;49.156;8.142;2022-10-16T02:37:16;0.90;;;0.50;;
18100;SDS011;9177;49.156;8.142;2022-10-16T02:39:44;0.63;;;0.40;;
18100;SDS011;9177;49.156;8.142;2022-10-16T02:42:11;1.00;;;0.50;;
18100;SDS011;9177;49.156;8.142;2022-10-16T02:44:39;0.50;;;0.50;;
18100;SDS011;9177;49.156;8.142;2022-10-16T02:47:07;0.40;;;0.40;;
18100;SDS011;9177;49.156;8.142;2022-10-16T02:49:34;1.33;;;0.60;;
18100;SDS011;9177;49.156;8.142;2022-10-16T02:52:01;0.90;;;0.47;;
18100;SDS011;9177;49.156;8.142;2022-10-16T02:54:28;0.60;;;0.50;;
18100;SDS011;9177;49.156;8.142;2022-10-16T02:56:55;0.50;;;0.40;;
18100;SDS011;9177;49.156;8.142;2022-10-16T02:59:22;0.50;;;0.40;;
18100;SDS011;9177;49.156;8.142;2022-10-16T03:01:49;0.80;;;0.63;;
18100;SDS011;9177;49.156;8.142;2022-10-16T03:04:17;1.57;;;0.40;;
18100;SDS011;9177;49.156;8.142;2022-10-16T03:06:44;0.77;;;0.50;;
18100;SDS011;9177;49.156;8.142;2022-10-16T03:09:11;0.50;;;0.40;;
18100;SDS011;9177;49.156;8.142;2022-10-16T03:11:37;0.50;;;0.50;;
18100;SDS011;9177;49.156;8.142;2022-10-16T03:14:04;0.67;;;0.53;;
18100;SDS011;9177;49.156;8.142;2022-10-16T03:16:31;0.60;;;0.60;;
18100;SDS011;9177;49.156;8.142;2022-10-16T03:18:58;0.50;;;0.50;;
18100;SDS011;9177;49.156;8.142;2022-10-16T03:21:26;1.13;;;0.60;;
18100;SDS011;9177;49.156;8.142;2022-10-16T03:23:53;0.63;;;0.60;;
18100;SDS011;9177;49.156;8.142;2022-10-16T03:26:20;0.50;;;0.40;;
18100;SDS011;9177;49.156;8.142;2022-10-16T03:28:47;1.07;;;0.50;;
18100;SDS011;9177;49.156;8.142;2022-10-16T03:31:13;0.50;;;0.50;;
18100;SDS011;9177;49.156;8.142;2022-10-16T03:33:40;0.87;;;0.60;;
18100;SDS011;9177;49.156;8.142;2022-10-16T03:36:07;0.50;;;0.50;;
18100;SDS011;9177;49.156;8.142;2022-10-16T03:38:35;0.93;;;0.57;;
18100;SDS011;9177;49.156;8.142;2022-10-16T03:41:02;0.40;;;0.40;;
18100;SDS011;9177;49.156;8.142;2022-10-16T03:43:30;0.40;;;0.40;;
18100;SDS011;9177;49.156;8.142;2022-10-16T03:45:56;1.10;;;0.57;;
18100;SDS011;9177;49.156;8.142;2022-10-16T03:48:23;0.60;;;0.50;;
18100;SDS011;9177;49.156;8.142;2022-10-16T03:50:50;1.30;;;0.50;;
18100;SDS011;9177;49.156;8.142;2022-10-16T03:53:17;1.73;;;0.60;;
18100;SDS011;9177;49.156;8.142;2022-10-16T03:55:45;0.90;;;0.57;;
18100;SDS011;9177;49.156;8.142;2022-10-16T03:58:12;0.70;;;0.60;;
18100;SDS011;9177;49.156;8.142;2022-10-16T04:00:39;0.57;;;0.50;;
18100;SDS011;9177;49.156;8.142;2022-10-16T04:03:07;0.83;;;0.60;;
18100;SDS011;9177;49.156;8.142;2022-10-16T04:05:33;0.53;;;0.33;;
18100;SDS011;9177;49.156;8.142;2022-10-16T04:08:01;0.50;;;0.50;;
18100;SDS011;9177;49.156;8.142;2022-10-16T04:10:28;1.47;;;0.60;;
18100;SDS011;9177;49.156;8.142;2022-10-16T04:12:56;0.60;;;0.60;;
18100;SDS011;9177;49.156;8.142;2022-10-16T04:15:23;0.50;;;0.50;;
18100;SDS011;9177;49.156;8.142;2022-10-16T04:17:50;0.60;;;0.50;;
18100;SDS011;9177;49.156;8.142;2022-10-16T04:20:17;1.70;;;0.43;;
18100;SDS011;9177;49.156;8.142;2022-10-16T04:22:44;0.57;;;0.57;;
18100;SDS011;9177;49.156;8.142;2022-10-16T04:25:11;0.60;;;0.50;;
18100;SDS011;9177;49.156;8.142;2022-10-16T04:27:38;0.50;;;0.40;;
18100;SDS011;9177;49.156;8.142;2022-10-16T04:30:07;0.50;;;0.50;;
18100;SDS011;9177;49.156;8.142;2022-10-16T04:32:34;0.90;;;0.60;;
18100;SDS011;9177;49.156;8.142;2022-10-16T04:35:01;0.50;;;0.50;;
18100;SDS011;9177;49.156;8.142;2022-10-16T04:37:28;0.50;;;0.50;;
18100;SDS011;9177;49.156;8.142;2022-10-16T04:39:55;0.40;;;0.40;;
18100;SDS011;9177;49.156;8.142;2022-10-16T04:42:21;0.50;;;0.50;;
18100;SDS011;9177;49.156;8.142;2022-10-16T04:44:48;0.90;;;0.50;;
18100;SDS011;9177;49.156;8.142;2022-10-16T04:47:16;0.40;;;0.40;;
18100;SDS011;9177;49.156;8.142;2022-10-16T04:49:43;0.47;;;0.47;;
18100;SDS011;9177;49.156;8.142;2022-10-16T04:52:10;0.50;;;0.50;;
18100;SDS011;9177;49.156;8.142;2022-10-16T04:54:37;0.90;;;0.50;;
18100;SDS011;9177;49.156;8.142;2022-10-16T04:57:08;0.70;;;0.50;;
18100;SDS011;9177;49.156;8.142;2022-10-16T04:59:35;1.23;;;0.50;;
18100;SDS011;9177;49.156;8.142;2022-10-16T05:02:02;0.40;;;0.37;;
18100;SDS011;9177;49.156;8.142;2022-10-16T05:04:30;0.60;;;0.40;;
18100;SDS011;9177;49.156;8.142;2022-10-16T05:06:57;1.17;;;0.50;;
18100;SDS011;9177;49.156;8.142;2022-10-16T05:09:24;0.83;;;0.67;;
18100;SDS011;9177;49.156;8.142;2022-10-16T05:11:51;0.40;;;0.40;;
18100;SDS011;9177;49.156;8.142;2022-10-16T05:14:17;1.80;;;0.60;;
18100;SDS011;9177;49.156;8.142;2022-10-16T05:16:44;0.50;;;0.50;;
18100;SDS011;9177;49.156;8.142;2022-10-16T05:19:13;1.60;;;0.40;;
18100;SDS011;9177;49.156;8.142;2022-10-16T05:21:41;0.60;;;0.53;;
18100;SDS011;9177;49.156;8.142;2022-10-16T05:24:08;0.50;;;0.50;;
18100;SDS011;9177;49.156;8.142;2022-10-16T05:26:35;0.60;;;0.50;;
18100;SDS011;9177;49.156;8.142;2022-10-16T05:29:02;0.73;;;0.53;;
18100;SDS011;9177;49.156;8.142;2022-10-16T05:31:29;1.07;;;0.50;;
18100;SDS011;9177;49.156;8.142;2022-10-16T05:33:57;0.40;;;0.40;;
18100;SDS011;9177;49.156;8.142;2022-10-16T05:36:25;0.63;;;0.60;;
18100;SDS011;9177;49.156;8.142;2022-10-16T05:38:53;0.70;;;0.50;;
18100;SDS011;9177;49.156;8.142;2022-10-16T05:41:20;0.90;;;0.80;;
18100;SDS011;9177;49.156;8.142;2022-10-16T05:43:48;0.90;;;0.70;;
18100;SDS011;9177;49.156;8.142;2022-10-16T05:46:15;0.30;;;0.30;;
18100;SDS011;9177;49.156;8.142;2022-10-16T05:48:45;1.50;;;0.50;;
18100;SDS011;9177;49.156;8.142;2022-10-16T05:51:13;0.50;;;0.50;;
18100;SDS011;9177;49.156;8.142;2022-10-16T05:53:40;0.70;;;0.60;;
18100;SDS011;9177;49.156;8.142;2022-10-16T05:56:10;0.70;;;0.50;;
18100;SDS011;9177;49.156;8.142;2022-10-16T05:58:38;0.60;;;0.57;;
18100;SDS011;9177;49.156;8.142;2022-10-16T06:01:07;0.53;;;0.50;;
18100;SDS011;9177;49.156;8.142;2022-10-16T06:03:36;0.60;;;0.60;;
18100;SDS011;9177;49.156;8.142;2022-10-16T06:06:07;0.40;;;0.40;;
18100;SDS011;9177;49.156;8.142;2022-10-16T06:08:34;0.70;;;0.60;;
18100;SDS011;9177;49.156;8.142;2022-10-16T06:11:01;0.73;;;0.60;;
18100;SDS011;9177;49.156;8.142;2022-10-16T06:13:30;0.50;;;0.50;;
18100;SDS011;9177;49.156;8.142;2022-10-16T06:15:57;1.43;;;0.47;;
18100;SDS011;9177;49.156;8.142;2022-10-16T06:18:26;1.10;;;0.50;;
18100;SDS011;9177;49.156;8.142;2022-10-16T06:20:54;0.50;;;0.40;;
18100;SDS011;9177;49.156;8.142;2022-10-16T06:23:21;0.60;;;0.60;;
18100;SDS011;9177;49.156;8.142;2022-10-16T06:25:48;0.50;;;0.50;;
18100;SDS011;9177;49.156;8.142;2022-10-16T06:28:15;0.50;;;0.50;;
18100;SDS011;9177;49.156;8.142;2022-10-16T06:30:44;0.50;;;0.50;;
18100;SDS011;9177;49.156;8.142;2022-10-16T06:33:10;0.50;;;0.50;;
18100;SDS011;9177;49.156;8.142;2022-10-16T06:35:37;0.43;;;0.43;;
18100;SDS011;9177;49.156;8.142;2022-10-16T06:38:04;0.60;;;0.60;;
18100;SDS011;9177;49.156;8.142;2022-10-16T06:40:31;0.40;;;0.40;;
18100;SDS011;9177;49.156;8.142;2022-10-16T06:42:58;0.97;;;0.60;;
18100;SDS011;9177;49.156;8.142;2022-10-16T06:45:25;1.07;;;0.60;;
18100;SDS011;9177;49.156;8.142;2022-10-16T06:47:53;0.40;;;0.40;;
18100;SDS011;9177;49.156;8.142;2022-10-16T06:50:20;0.70;;;0.50;;
18100;SDS011;9177;49.156;8.142;2022-10-16T06:52:47;0.43;;;0.43;;
18100;SDS011;9177;49.156;8.142;2022-10-16T06:55:14;0.60;;;0.60;;
18100;SDS011;9177;49.156;8.142;2022-10-16T06:57:42;0.50;;;0.50;;
18100;SDS011;9177;49.156;8.142;2022-10-16T07:00:09;1.80;;;0.67;;
18100;SDS011;9177;49.156;8.142;2022-10-16T07:02:36;0.40;;;0.40;;
18100;SDS011;9177;49.156;8.142;2022-10-16T07:05:05;0.70;;;0.70;;
18100;SDS011;9177;49.156;8.142;2022-10-16T07:07:32;0.73;;;0.50;;
18100;SDS011;9177;49.156;8.142;2022-10-16T07:09:59;0.60;;;0.60;;
18100;SDS011;9177;49.156;8.142;2022-10-16T07:12:25;0.40;;;0.40;;
18100;SDS011;9177;49.156;8.142;2022-10-16T07:14:52;0.60;;;0.60;;
18100;SDS011;9177;49.156;8.142;2022-10-16T07:17:20;0.60;;;0.60;;
18100;SDS011;9177;49.156;8.142;2022-10-16T07:19:47;0.47;;;0.40;;
18100;SDS011;9177;49.156;8.142;2022-10-16T07:22:15;1.33;;;0.60;;
18100;SDS011;9177;49.156;8.142;2022-10-16T07:24:43;0.50;;;0.50;;
18100;SDS011;9177;49.156;8.142;2022-10-16T07:27:10;0.50;;;0.50;;
18100;SDS011;9177;49.156;8.142;2022-10-16T07:29:37;0.70;;;0.70;;
18100;SDS011;9177;49.156;8.142;2022-10-16T07:32:07;0.70;;;0.60;;
18100;SDS011;9177;49.156;8.142;2022-10-16T07:34:34;1.03;;;0.73;;
18100;SDS011;9177;49.156;8.142;2022-10-16T07:37:01;0.70;;;0.57;;
18100;SDS011;9177;49.156;8.142;2022-10-16T07:39:29;0.57;;;0.40;;
18100;SDS011;9177;49.156;8.142;2022-10-16T07:41:56;0.87;;;0.80;;
18100;SDS011;9177;49.156;8.142;2022-10-16T07:44:23;0.60;;;0.60;;
18100;SDS011;9177;49.156;8.142;2022-10-16T07:46:56;1.03;;;0.80;;
18100;SDS011;9177;49.156;8.142;2022-10-16T07:49:23;0.83;;;0.60;;
18100;SDS011;9177;49.156;8.142;2022-10-16T07:51:50;0.47;;;0.40;;
18100;SDS011;9177;49.156;8.142;2022-10-16T07:54:17;0.80;;;0.80;;
18100;SDS011;9177;49.156;8.142;2022-10-16T07:56:46;0.50;;;0.50;;
18100;SDS011;9177;49.156;8.142;2022-10-16T07:59:12;1.20;;;0.50;;
18100;SDS011;9177;49.156;8.142;2022-10-16T08:01:39;2.40;;;0.60;;
18100;SDS011;9177;49.156;8.142;2022-10-16T08:04:07;0.80;;;0.60;;
18100;SDS011;9177;49.156;8.142;2022-10-16T08:06:35;0.50;;;0.40;;
18100;SDS011;9177;49.156;8.142;2022-10-16T08:09:03;0.63;;;0.63;;
18100;SDS011;9177;49.156;8.142;2022-10-16T08:11:30;0.70;;;0.70;;
18100;SDS011;9177;49.156;8.142;2022-10-16T08:13:58;2.10;;;0.53;;
18100;SDS011;9177;49.156;8.142;2022-10-16T08:16:26;1.00;;;0.53;;
18100;SDS011;9177;49.156;8.142;2022-10-16T08:18:52;1.30;;;0.47;;
18100;SDS011;9177;49.156;8.142;2022-10-16T08:21:20;0.70;;;0.60;;
18100;SDS011;9177;49.156;8.142;2022-10-16T08:23:48;0.70;;;0.57;;
18100;SDS011;9177;49.156;8.142;2022-10-16T08:26:15;1.00;;;0.70;;
18100;SDS011;9177;49.156;8.142;2022-10-16T08:28:44;0.60;;;0.60;;
18100;SDS011;9177;49.156;8.142;2022-10-16T08:31:13;0.83;;;0.53;;
18100;SDS011;9177;49.156;8.142;2022-10-16T08:33:42;0.63;;;0.60;;
18100;SDS011;9177;49.156;8.142;2022-10-16T08:36:12;0.70;;;0.70;;
18100;SDS011;9177;49.156;8.142;2022-10-16T08:38:39;0.70;;;0.70;;
18100;SDS011;9177;49.156;8.142;2022-10-16T08:41:21;0.50;;;0.50;;
18100;SDS011;9177;49.156;8.142;2022-10-16T08:43:59;0.60;;;0.60;;
18100;SDS011;9177;49.156;8.142;2022-10-16T08:46:56;0.70;;;0.70;;
18100;SDS011;9177;49.156;8.142;2022-10-16T08:49:31;0.90;;;0.63;;
18100;SDS011;9177;49.156;8.142;2022-10-16T08:51:58;0.70;;;0.70;;
18100;SDS011;9177;49.156;8.142;2022-10-16T08:54:28;0.70;;;0.70;;
18100;SDS011;9177;49.156;8.142;2022-10-16T08:57:00;0.50;;;0.47;;
18100;SDS011;9177;49.156;8.142;2022-10-16T08:59:35;0.90;;;0.90;;
18100;SDS011;9177;49.156;8.142;2022-10-16T09:02:08;1.60;;;0.67;;
18100;SDS011;9177;49.156;8.142;2022-10-16T09:04:52;0.60;;;0.60;;
18100;SDS011;9177;49.156;8.142;2022-10-16T09:07:28;1.00;;;0.67;;
18100;SDS011;9177;49.156;8.142;2022-10-16T09:10:10;1.60;;;0.80;;
18100;SDS011;9177;49.156;8.142;2022-10-16T09:12:51;1.03;;;0.60;;
18100;SDS011;9177;49.156;8.142;2022-10-16T09:15:23;0.60;;;0.60;;
18100;SDS011;9177;49.156;8.142;2022-10-16T09:18:00;0.70;;;0.70;;
18100;SDS011;9177;49.156;8.142;2022-10-16T09:20:32;1.37;;;0.77;;
18100;SDS011;9177;49.156;8.142;2022-10-16T09:23:12;0.70;;;0.70;;
18100;SDS011;9177;49.156;8.142;2022-10-16T09:25:43;0.50;;;0.50;;
18100;SDS011;9177;49.156;8.142;2022-10-16T09:28:12;0.93;;;0.40;;
18100;SDS011;9177;49.156;8.142;2022-10-16T09:30:39;1.03;;;0.63;;
18100;SDS011;9177;49.156;8.142;2022-10-16T09:33:09;0.40;;;0.40;;
18100;SDS011;9177;49.156;8.142;2022-10-16T09:35:39;0.70;;;0.70;;
18100;SDS011;9177;49.156;8.142;2022-10-16T09:38:20;0.60;;;0.60;;
18100;SDS011;9177;49.156;8.142;2022-10-16T09:40:48;0.70;;;0.70;;
18100;SDS011;9177;49.156;8.142;2022-10-16T09:43:19;0.70;;;0.70;;
18100;SDS011;9177;49.156;8.142;2022-10-16T09:45:57;0.60;;;0.60;;
18100;SDS011;9177;49.156;8.142;2022-10-16T09:48:28;1.77;;;0.70;;
18100;SDS011;9177;49.156;8.142;2022-10-16T09:51:00;1.33;;;0.67;;
18100;SDS011;9177;49.156;8.142;2022-10-16T09:53:39;0.80;;;0.70;;
18100;SDS011;9177;49.156;8.142;2022-10-16T09:56:09;0.83;;;0.50;;
18100;SDS011;9177;49.156;8.142;2022-10-16T09:58:41;0.93;;;0.50;;
18100;SDS011;9177;49.156;8.142;2022-10-16T10:01:11;0.53;;;0.53;;
18100;SDS011;9177;49.156;8.142;2022-10-16T10:03:42;0.67;;;0.67;;
18100;SDS011;9177;49.156;8.142;2022-10-16T10:06:17;1.37;;;0.70;;
18100;SDS011;9177;49.156;8.142;2022-10-16T10:08:55;0.60;;;0.60;;
18100;SDS011;9177;49.156;8.142;2022-10-16T10:14:22;0.70;;;0.70;;
18100;SDS011;9177;49.156;8.142;2022-10-16T10:16:52;1.73;;;0.73;;
18100;SDS011;9177;49.156;8.142;2022-10-16T10:19:30;0.87;;;0.60;;
18100;SDS011;9177;49.156;8.142;2022-10-16T10:22:11;1.23;;;0.60;;
18100;SDS011;9177;49.156;8.142;2022-10-16T10:24:55;0.73;;;0.73;;
18100;SDS011;9177;49.156;8.142;2022-10-16T10:27:27;1.20;;;0.77;;
18100;SDS011;9177;49.156;8.142;2022-10-16T10:30:03;1.43;;;0.60;;
18100;SDS011;9177;49.156;8.142;2022-10-16T10:32:38;0.80;;;0.70;;
18100;SDS011;9177;49.156;8.142;2022-10-16T10:35:15;0.93;;;0.60;;
18100;SDS011;9177;49.156;8.142;2022-10-16T10:37:51;0.80;;;0.77;;
18100;SDS011;9177;49.156;8.142;2022-10-16T10:40:30;0.80;;;0.70;;
18100;SDS011;9177;49.156;8.142;2022-10-16T10:43:10;1.70;;;0.70;;
18100;SDS011;9177;49.156;8.142;2022-10-16T10:45:46;0.80;;;0.80;;
18100;SDS011;9177;49.156;8.142;2022-10-16T10:48:17;1.60;;;1.00;;
18100;SDS011;9177;49.156;8.142;2022-10-16T10:50:54;1.03;;;0.87;;
18100;SDS011;9177;49.156;8.142;2022-10-16T10:53:30;1.87;;;0.80;;
18100;SDS011;9177;49.156;8.142;2022-10-16T10:56:07;1.53;;;0.80;;
18100;SDS011;9177;49.156;8.142;2022-10-16T10:58:57;2.57;;;0.80;;
18100;SDS011;9177;49.156;8.142;2022-10-16T11:01:34;2.97;;;0.93;;
18100;SDS011;9177;49.156;8.142;2022-10-16T11:04:20;1.07;;;0.73;;
18100;SDS011;9177;49.156;8.142;2022-10-16T11:07:07;3.20;;;0.90;;
18100;SDS011;9177;49.156;8.142;2022-10-16T11:09:41;1.30;;;1.00;;
18100;SDS011;9177;49.156;8.142;2022-10-16T11:12:14;1.50;;;0.97;;
18100;SDS011;9177;49.156;8.142;2022-10-16T11:14:46;1.47;;;0.93;;
18100;SDS011;9177;49.156;8.142;2022-10-16T11:17:18;1.33;;;1.07;;
18100;SDS011;9177;49.156;8.142;2022-10-16T11:19:51;1.17;;;1.00;;
18100;SDS011;9177;49.156;8.142;2022-10-16T11:22:24;1.23;;;1.10;;
18100;SDS011;9177;49.156;8.142;2022-10-16T11:24:59;2.07;;;1.00;;
18100;SDS011;9177;49.156;8.142;2022-10-16T11:27:35;3.73;;;1.10;;
18100;SDS011;9177;49.156;8.142;2022-10-16T11:30:04;1.53;;;0.90;;
18100;SDS011;9177;49.156;8.142;2022-10-16T11:32:40;2.00;;;1.23;;
18100;SDS011;9177;49.156;8.142;2022-10-16T11:35:19;2.40;;;1.00;;
18100;SDS011;9177;49.156;8.142;2022-10-16T11:37:51;1.93;;;1.03;;
18100;SDS011;9177;49.156;8.142;2022-10-16T11:40:24;1.40;;;1.10;;
18100;SDS011;9177;49.156;8.142;2022-10-16T11:42:57;2.03;;;1.03;;
18100;SDS011;9177;49.156;8.142;2022-10-16T11:45:32;1.63;;;0.93;;
18100;SDS011;9177;49.156;8.142;2022-10-16T11:48:04;1.17;;;0.90;;
18100;SDS011;9177;49.156;8.142;2022-10-16T11:50:42;1.80;;;0.90;;
18100;SDS011;9177;49.156;8.142;2022-10-16T11:53:16;3.83;;;1.50;;
18100;SDS011;9177;49.156;8.142;2022-10-16T11:55:55;2.03;;;1.20;;
18100;SDS011;9177;49.156;8.142;2022-10-16T11:58:23;1.42;;;0.90;;
18100;SDS011;9177;49.156;8.142;2022-10-16T12:00:57;1.90;;;1.03;;
18100;SDS011;9177;49.156;8.142;2022-10-16T12:03:29;1.77;;;1.00;;
18100;SDS011;9177;49.156;8.142;2022-10-16T12:06:06;1.47;;;0.70;;
18100;SDS011;9177;49.156;8.142;2022-10-16T12:08:46;1.88;;;0.98;;
18100;SDS011;9177;49.156;8.142;2022-10-16T12:11:22;1.13;;;1.00;;
18100;SDS011;9177;49.156;8.142;2022-10-16T12:14:03;1.43;;;1.10;;
18100;SDS011;9177;49.156;8.142;2022-10-16T12:16:32;3.03;;;1.00;;
18100;SDS011;9177;49.156;8.142;2022-10-16T12:19:03;1.10;;;0.97;;
18100;SDS011;9177;49.156;8.142;2022-10-16T12:21:38;2.37;;;1.20;;
18100;SDS011;9177;49.156;8.142;2022-10-16T12:24:06;2.30;;;1.00;;
18100;SDS011;9177;49.156;8.142;2022-10-16T12:26:48;2.37;;;1.10;;
18100;SDS011;9177;49.156;8.142;2022-10-16T12:29:21;2.13;;;1.00;;
18100;SDS011;9177;49.156;8.142;2022-10-16T12:31:53;2.37;;;1.40;;
18100;SDS011;9177;49.156;8.142;2022-10-16T12:34:21;2.30;;;1.10;;
18100;SDS011;9177;49.156;8.142;2022-10-16T12:36:52;1.73;;;1.00;;
18100;SDS011;9177;49.156;8.142;2022-10-16T12:39:23;1.57;;;0.90;;
18100;SDS011;9177;49.156;8.142;2022-10-16T12:42:00;3.30;;;1.30;;
18100;SDS011;9177;49.156;8.142;2022-10-16T12:44:32;1.92;;;1.20;;
18100;SDS011;9177;49.156;8.142;2022-10-16T12:47:01;1.90;;;1.20;;
18100;SDS011;9177;49.156;8.142;2022-10-16T12:49:31;2.03;;;0.98;;
18100;SDS011;9177;49.156;8.142;2022-10-16T12:52:02;2.33;;;1.27;;
18100;SDS011;9177;49.156;8.142;2022-10-16T12:54:31;2.97;;;1.30;;
18100;SDS011;9177;49.156;8.142;2022-10-16T12:57:06;1.63;;;1.20;;
18100;SDS011;9177;49.156;8.142;2022-10-16T12:59:47;3.17;;;1.10;;
18100;SDS011;9177;49.156;8.142;2022-10-16T13:05:24;1.37;;;1.10;;
18100;SDS011;9177;49.156;8.142;2022-10-16T13:08:03;1.63;;;1.20;;
18100;SDS011;9177;49.156;8.142;2022-10-16T13:10:45;1.60;;;1.20;;
18100;SDS011;9177;49.156;8.142;2022-10-16T13:13:24;1.67;;;1.33;;
18100;SDS011;9177;49.156;8.142;2022-10-16T13:16:10;1.27;;;1.10;;
18100;SDS011;9177;49.156;8.142;2022-10-16T13:18:44;1.42;;;0.90;;
18100;SDS011;9177;49.156;8.142;2022-10-16T13:21:19;1.63;;;0.90;;
18100;SDS011;9177;49.156;8.142;2022-10-16T13:23:58;1.73;;;1.30;;
18100;SDS011;9177;49.156;8.142;2022-10-16T13:26:36;3.67;;;1.40;;
18100;SDS011;9177;49.156;8.142;2022-10-16T13:29:12;3.13;;;1.40;;
18100;SDS011;9177;49.156;8.142;2022-10-16T13:31:40;2.70;;;1.40;;
18100;SDS011;9177;49.156;8.142;2022-10-16T13:34:11;2.03;;;1.13;;
18100;SDS011;9177;49.156;8.142;2022-10-16T13:36:43;2.07;;;1.20;;
18100;SDS011;9177;49.156;8.142;2022-10-16T13:39:13;1.77;;;1.13;;
18100;SDS011;9177;49.156;8.142;2022-10-16T13:41:43;1.73;;;1.40;;
18100;SDS011;9177;49.156;8.142;2022-10-16T13:44:13;2.30;;;1.10;;
18100;SDS011;9177;49.156;8.142;2022-10-16T13:46:43;1.40;;;1.23;;
18100;SDS011;9177;49.156;8.142;2022-10-16T13:49:14;1.57;;;1.30;;
18100;SDS011;9177;49.156;8.142;2022-10-16T13:51:53;3.33;;;1.00;;
18100;SDS011;9177;49.156;8.142;2022-10-16T13:54:20;2.17;;;1.27;;
18100;SDS011;9177;49.156;8.142;2022-10-16T13:56:49;1.40;;;1.20;;
18100;SDS011;9177;49.156;8.142;2022-10-16T13:59:22;3.03;;;1.40;;
18100;SDS011;9177;49.156;8.142;2022-10-16T14:01:51;1.77;;;1.30;;
18100;SDS011;9177;49.156;8.142;2022-10-16T14:04:20;1.90;;;1.40;;
18100;SDS011;9177;49.156;8.142;2022-10-16T14:06:49;3.40;;;1.30;;
18100;SDS011;9177;49.156;8.142;2022-10-16T14:09:19;1.50;;;1.23;;
18100;SDS011;9177;49.156;8.142;2022-10-16T14:11:50;1.33;;;1.10;;
18100;SDS011;9177;49.156;8.142;2022-10-16T14:14:20;2.47;;;1.33;;
18100;SDS011;9177;49.156;8.142;2022-10-16T14:16:47;2.40;;;1.30;;
18100;SDS011;9177;49.156;8.142;2022-10-16T14:19:16;1.30;;;1.20;;
18100;SDS011;9177;49.156;8.142;2022-10-16T14:21:47;1.40;;;1.30;;
18100;SDS011;9177;49.156;8.142;2022-10-16T14:24:22;1.93;;;1.20;;
18100;SDS011;9177;49.156;8.142;2022-10-16T14:26:54;2.90;;;1.20;;
18100;SDS011;9177;49.156;8.142;2022-10-16T14:29:21;2.10;;;1.30;;
18100;SDS011;9177;49.156;8.142;2022-10-16T14:31:57;1.10;;;1.00;;
18100;SDS011;9177;49.156;8.142;2022-10-16T14:34:28;1.83;;;1.40;;
18100;SDS011;9177;49.156;8.142;2022-10-16T14:36:58;1.20;;;1.00;;
18100;SDS011;9177;49.156;8.142;2022-10-16T14:39:29;1.57;;;1.13;;
18100;SDS011;9177;49.156;8.142;2022-10-16T14:41:58;1.37;;;1.27;;
18100;SDS011;9177;49.156;8.142;2022-10-16T14:44:29;1.23;;;1.13;;
18100;SDS011;9177;49.156;8.142;2022-10-16T14:47:06;2.17;;;1.40;;
18100;SDS011;9177;49.156;8.142;2022-10-16T14:49:34;1.97;;;1.47;;
18100;SDS011;9177;49.156;8.142;2022-10-16T14:52:01;1.67;;;1.25;;
18100;SDS011;9177;49.156;8.142;2022-10-16T14:54:34;2.13;;;1.20;;
18100;SDS011;9177;49.156;8.142;2022-10-16T14:57:03;1.40;;;1.30;;
18100;SDS011;9177;49.156;8.142;2022-10-16T14:59:31;2.80;;;1.30;;
18100;SDS011;9177;49.156;8.142;2022-10-16T15:02:09;1.83;;;1.42;;
18100;SDS011;9177;49.156;8.142;2022-10-16T15:04:45;1.40;;;1.17;;
18100;SDS011;9177;49.156;8.142;2022-10-16T15:07:12;3.30;;;1.43;;
18100;SDS011;9177;49.156;8.142;2022-10-16T15:09:38;1.30;;;1.20;;
18100;SDS011;9177;49.156;8.142;2022-10-16T15:12:07;1.20;;;1.10;;
18100;SDS011;9177;49.156;8.142;2022-10-16T15:14:34;3.03;;;1.43;;
18100;SDS011;9177;49.156;8.142;2022-10-16T15:17:00;1.47;;;1.37;;
18100;SDS011;9177;49.156;8.142;2022-10-16T15:19:28;2.27;;;1.40;;
18100;SDS011;9177;49.156;8.142;2022-10-16T15:21:55;3.47;;;1.30;;
18100;SDS011;9177;49.156;8.142;2022-10-16T15:24:22;4.07;;;1.53;;
18100;SDS011;9177;49.156;8.142;2022-10-16T15:26:49;2.83;;;1.50;;